Sbi Athena — V7IG7 — position and weather

sailwx.info

Track history (hours):
 
Tides and Currents Weather Stations Pressure Air Temp Water Temp Dewpoint Dewpoint Depression Visibility Wind Speed Wind Dir Waves Ship Positions

Sbi Athena

Last reported at 2017-Oct-18 12:36 UTC. Time now 2017-Oct-18 20:16 UTC.
Position N 56°52' E 007°40'.

Length 200 m; draft 13.8 m.

Type: Cargo ship. MMSI: 538005937.

Date/timePositionNaut miles runAvg speedWind from/ knotsBaromVisibWave heightAir tempDewpointWater temp
2017-Oct-18 12:36N 56°52' E 007°40'1 9.2
2017-Oct-18 12:30N 56°53' E 007°41'5 9.2
2017-Oct-18 11:59N 56°57' E 007°46'5 9.2
2017-Oct-18 11:29N 57°00' E 007°50'5 9.1
2017-Oct-18 10:59N 57°04' E 007°55'4 9.1
2017-Oct-18 10:29N 57°08' E 007°59'83 7.2
2017-Oct-17 23:03N 57°52' E 010°10'2 5.4
2017-Oct-17 22:41N 57°52' E 010°14'1 5.5
2017-Oct-17 22:28N 57°52' E 010°16'2 5.4
2017-Oct-17 22:00N 57°51' E 010°21'3 5.8
2017-Oct-17 21:30N 57°51' E 010°26'3 5.7
2017-Oct-17 21:00N 57°51' E 010°32'3 5.7
2017-Oct-17 20:30N 57°51' E 010°37'3 5.9
2017-Oct-17 20:00N 57°51' E 010°43'2 4.9
2017-Oct-17 19:30N 57°50' E 010°47'4 8.2
2017-Oct-17 19:00N 57°45' E 010°45'3 5.5
2017-Oct-17 18:30N 57°43' E 010°45'2 4.9
2017-Oct-17 18:00N 57°40' E 010°46'4 8.6
2017-Oct-17 17:30N 57°37' E 010°51'5 9.8
2017-Oct-17 17:00N 57°35' E 010°59'5 9.8
2017-Oct-17 16:30N 57°33' E 011°07'5 9.9
2017-Oct-17 16:00N 57°31' E 011°16'5 9.8
2017-Oct-17 15:30N 57°29' E 011°24'5 9.7
2017-Oct-17 15:00N 57°24' E 011°28'510.6
2017-Oct-17 14:30N 57°19' E 011°31'511.0
2017-Oct-17 14:00N 57°14' E 011°35'611.1
2017-Oct-17 13:30N 57°09' E 011°38'611.2
2017-Oct-17 13:00N 57°04' E 011°42'7310.3
2017-Oct-17 05:59N 55°55' E 010°57'611.2
2017-Oct-17 05:28N 55°52' E 010°49'1212.0
2017-Oct-17 04:30N 55°41' E 010°48'611.7
2017-Oct-17 04:00N 55°35' E 010°49'611.8
2017-Oct-17 03:30N 55°30' E 010°54'611.4
2017-Oct-17 03:00N 55°25' E 010°59'611.3
2017-Oct-17 02:30N 55°19' E 011°02'611.6
2017-Oct-17 02:00N 55°14' E 011°06'510.4
2017-Oct-17 01:30N 55°10' E 011°01'510.6
2017-Oct-17 01:00N 55°04' E 010°59'510.5
2017-Oct-17 00:30N 54°59' E 010°58'510.1
2017-Oct-17 00:00N 54°55' E 010°53'510.0
2017-Oct-16 23:30N 54°51' E 010°50'510.0
2017-Oct-16 23:00N 54°46' E 010°48'5 9.8
2017-Oct-16 22:30N 54°41' E 010°48'611.3
2017-Oct-16 22:00N 54°38' E 010°56'611.1
2017-Oct-16 21:30N 54°36' E 011°05'611.3
2017-Oct-16 21:00N 54°35' E 011°15'611.3
2017-Oct-16 20:30N 54°32' E 011°23'611.4
2017-Oct-16 20:00N 54°30' E 011°32'611.5
2017-Oct-16 19:30N 54°27' E 011°41'611.7
2017-Oct-16 19:00N 54°27' E 011°51'611.3
2017-Oct-16 18:30N 54°27' E 012°01'610.9
2017-Oct-16 17:59N 54°27' E 012°11'1010.5
2017-Oct-16 17:05N 54°36' E 012°16'0 6.1
2017-Oct-16 17:00N 54°36' E 012°16'3 5.9
2017-Oct-16 16:30N 54°38' E 012°20'4 7.5
2017-Oct-16 16:00N 54°40' E 012°26'510.8
2017-Oct-16 15:30N 54°43' E 012°34'610.7
2017-Oct-16 14:59N 54°46' E 012°42'510.9
2017-Oct-16 14:30N 54°48' E 012°50'1411.0
2017-Oct-16 13:13N 54°54' E 013°13'311.3
2017-Oct-16 12:57N 54°55' E 013°17'1011.0
2017-Oct-16 12:04N 54°58' E 013°33'210.7
2017-Oct-16 11:56N 54°59' E 013°36'510.6
2017-Oct-16 11:30N 55°00' E 013°43'610.8
2017-Oct-16 10:58N 55°02' E 013°53'511.1
2017-Oct-16 10:30N 55°04' E 014°01'510.7
2017-Oct-16 09:59N 55°08' E 014°08'511.0
2017-Oct-16 09:30N 55°12' E 014°14'611.0
2017-Oct-16 09:00N 55°16' E 014°20'510.9
2017-Oct-16 08:30N 55°20' E 014°26'510.9
2017-Oct-16 08:00N 55°24' E 014°33'510.7
2017-Oct-16 07:30N 55°28' E 014°40'511.1
2017-Oct-16 07:00N 55°30' E 014°48'611.2
2017-Oct-16 06:30N 55°33' E 014°57'611.0
2017-Oct-16 05:58N 55°36' E 015°06'610.8
2017-Oct-16 05:25N 55°38' E 015°16'410.7
2017-Oct-16 05:00N 55°39' E 015°24'610.8
2017-Oct-16 04:30N 55°40' E 015°33'510.9
2017-Oct-16 04:00N 55°42' E 015°43'611.1
2017-Oct-16 03:30N 55°43' E 015°52'511.0
2017-Oct-16 03:00N 55°45' E 016°01'510.9
2017-Oct-16 02:30N 55°46' E 016°11'510.9
2017-Oct-16 02:00N 55°47' E 016°20'510.8
2017-Oct-16 01:30N 55°49' E 016°30'510.6
2017-Oct-16 01:00N 55°50' E 016°39'510.8
2017-Oct-16 00:30N 55°51' E 016°48'1110.9
2017-Oct-15 23:32N 55°54' E 017°06'411.0
2017-Oct-15 23:08N 55°55' E 017°14'211.0
2017-Oct-15 22:59N 55°55' E 017°17'1110.8
2017-Oct-15 21:58N 55°58' E 017°36'710.9
2017-Oct-15 21:20N 56°01' E 017°47'411.0
2017-Oct-15 20:58N 56°03' E 017°53'711.1
2017-Oct-15 20:23N 56°07' E 018°03'610.9
2017-Oct-15 19:49N 56°10' E 018°12'2610.9
2017-Oct-15 17:24N 56°27' E 018°49'411.3
2017-Oct-15 17:00N 56°30' E 018°53'21310.4
2017-Oct-14 20:28N 59°30' E 022°29'910.2
2017-Oct-14 19:33N 59°33' E 022°46'310.7
2017-Oct-14 19:15N 59°34' E 022°52'810.2
2017-Oct-14 18:26N 59°36' E 023°08'4 9.8
2017-Oct-14 18:00N 59°38' E 023°16'5 9.8
2017-Oct-14 17:30N 59°39' E 023°25'510.1
2017-Oct-14 16:59N 59°40' E 023°35'510.0
2017-Oct-14 16:30N 59°42' E 023°44'510.1
2017-Oct-14 16:00N 59°43' E 023°54'5 9.7
2017-Oct-14 15:30N 59°45' E 024°03'510.3
2017-Oct-14 15:00N 59°46' E 024°13'510.8
2017-Oct-14 14:30N 59°47' E 024°23'510.7
2017-Oct-14 14:00N 59°48' E 024°34'510.9
2017-Oct-14 13:30N 59°50' E 024°44'5 9.6
2017-Oct-14 13:00N 59°51' E 024°54'510.8
2017-Oct-14 12:30N 59°52' E 025°04'510.8
2017-Oct-14 12:00N 59°53' E 025°15'29 7.6
2017-Oct-14 08:09N 59°60' E 026°12'211.1
2017-Oct-14 08:00N 60°01' E 026°14'510.9
2017-Oct-14 07:30N 60°04' E 026°23'5 9.5
2017-Oct-14 07:00N 60°08' E 026°30'1 2.2
2017-Oct-14 06:30N 60°09' E 026°29'0 0.2
2017-Oct-14 05:59N 60°08' E 026°29'0 0.0
2017-Oct-14 05:29N 60°08' E 026°29'0 0.0
2017-Oct-14 04:59N 60°08' E 026°29'0 0.0
2017-Oct-14 04:29N 60°08' E 026°29'0 0.0
2017-Oct-14 03:59N 60°08' E 026°29'0 0.0
2017-Oct-14 03:29N 60°08' E 026°29'0 0.0
2017-Oct-14 02:59N 60°08' E 026°29'0 0.0
2017-Oct-14 02:29N 60°08' E 026°29'0 0.0
2017-Oct-14 01:59N 60°08' E 026°29'0 0.0
2017-Oct-14 00:05N 60°08' E 026°29'0 0.1
2017-Oct-13 23:59N 60°08' E 026°29'0 0.0
2017-Oct-13 23:29N 60°08' E 026°29'0 0.0
2017-Oct-13 22:59N 60°08' E 026°29'0 0.1
2017-Oct-13 22:29N 60°08' E 026°29'0 0.0
2017-Oct-13 21:59N 60°08' E 026°29'0 0.0
2017-Oct-13 21:29N 60°08' E 026°29'0 0.0
2017-Oct-13 20:59N 60°08' E 026°29'0 0.0
2017-Oct-13 20:29N 60°08' E 026°29'0 0.0
2017-Oct-13 19:59N 60°08' E 026°29'0 0.0
2017-Oct-13 19:29N 60°08' E 026°29'0 0.0
2017-Oct-13 18:59N 60°08' E 026°29'0 0.0
2017-Oct-13 18:29N 60°08' E 026°29'0 0.0
2017-Oct-13 17:59N 60°08' E 026°29'0 0.0
2017-Oct-13 17:29N 60°08' E 026°29'0 0.0
2017-Oct-13 16:59N 60°08' E 026°29'0 0.0
2017-Oct-13 16:29N 60°08' E 026°29'0 0.1
2017-Oct-13 15:59N 60°08' E 026°29'0 0.1
2017-Oct-13 15:29N 60°08' E 026°29'0 0.2
2017-Oct-13 14:59N 60°08' E 026°29'0 0.3
2017-Oct-13 14:29N 60°09' E 026°29'0 0.0
2017-Oct-13 13:59N 60°09' E 026°29'0 0.0
2017-Oct-13 13:29N 60°09' E 026°29'0 0.0
2017-Oct-13 12:59N 60°09' E 026°29'0 0.0
2017-Oct-13 12:29N 60°09' E 026°29'0 0.0
2017-Oct-13 11:59N 60°09' E 026°29'0 0.0
2017-Oct-13 11:29N 60°09' E 026°29'0 0.0
2017-Oct-13 10:59N 60°09' E 026°29'0 0.0
2017-Oct-13 10:29N 60°09' E 026°29'0 0.0
2017-Oct-13 09:59N 60°09' E 026°29'0 0.0
2017-Oct-13 09:29N 60°09' E 026°29'0 0.0
2017-Oct-13 08:59N 60°09' E 026°29'0 0.0
2017-Oct-13 08:29N 60°09' E 026°29'0 0.0
2017-Oct-13 07:59N 60°09' E 026°29'0 0.0
2017-Oct-13 07:29N 60°09' E 026°29'0 0.0
2017-Oct-13 07:00N 60°09' E 026°29'0 0.0
2017-Oct-13 06:29N 60°09' E 026°29'0 0.0
2017-Oct-13 05:59N 60°09' E 026°29'0 0.0
2017-Oct-13 05:29N 60°09' E 026°29'0 0.0
2017-Oct-13 04:59N 60°09' E 026°29'0 0.0
2017-Oct-13 04:29N 60°09' E 026°29'0 0.0
2017-Oct-13 03:59N 60°09' E 026°29'0 0.0
2017-Oct-13 03:29N 60°09' E 026°29'0 0.0
2017-Oct-13 02:56N 60°09' E 026°29'0 0.1
2017-Oct-13 02:26N 60°09' E 026°29'0 0.0
2017-Oct-13 01:59N 60°09' E 026°29'0 0.0
2017-Oct-13 01:29N 60°09' E 026°29'0 0.0
2017-Oct-13 00:59N 60°09' E 026°29'0 0.1
2017-Oct-13 00:23N 60°09' E 026°29'0 0.0
2017-Oct-12 23:56N 60°09' E 026°29'0 0.0
2017-Oct-12 23:29N 60°09' E 026°29'0 0.0
2017-Oct-12 22:59N 60°09' E 026°29'0 0.0
2017-Oct-12 20:44N 60°09' E 026°29'0 0.0
2017-Oct-12 19:08N 60°09' E 026°29'0 0.1
2017-Oct-12 18:59N 60°09' E 026°29'0 0.0
2017-Oct-12 18:26N 60°09' E 026°29'0 0.0
2017-Oct-12 17:44N 60°09' E 026°29'0 0.0
2017-Oct-12 17:26N 60°09' E 026°29'0 0.0
2017-Oct-12 16:50N 60°09' E 026°29'0 0.0
2017-Oct-12 16:17N 60°09' E 026°29'0 0.0
2017-Oct-12 15:59N 60°09' E 026°29'0 0.0
2017-Oct-12 15:29N 60°09' E 026°29'0 0.0
2017-Oct-12 14:59N 60°09' E 026°29'0 0.0
2017-Oct-12 14:29N 60°09' E 026°29'0 0.0
2017-Oct-12 13:59N 60°09' E 026°29'0 0.0
2017-Oct-12 13:29N 60°09' E 026°29'0 0.1
2017-Oct-12 12:59N 60°09' E 026°29'0 0.0
2017-Oct-12 12:29N 60°09' E 026°29'0 0.1
2017-Oct-12 11:53N 60°09' E 026°29'0 0.0
2017-Oct-12 11:29N 60°09' E 026°29'0 0.2
2017-Oct-12 11:00N 60°09' E 026°29'0 0.1
2017-Oct-12 10:29N 60°09' E 026°29'0 0.0
2017-Oct-12 09:59N 60°09' E 026°29'0 0.0
2017-Oct-12 09:29N 60°09' E 026°29'0 0.0
2017-Oct-12 08:59N 60°09' E 026°29'0 0.1
2017-Oct-12 08:29N 60°09' E 026°29'0 0.2
2017-Oct-12 07:59N 60°09' E 026°29'0 0.1
2017-Oct-12 07:26N 60°09' E 026°29'0 0.1
2017-Oct-12 06:59N 60°09' E 026°29'0 0.0
2017-Oct-12 06:08N 60°09' E 026°29'0 0.0
2017-Oct-12 04:59N 60°09' E 026°29'0 0.0
2017-Oct-12 04:30N 60°09' E 026°29'0 0.0
2017-Oct-12 03:59N 60°09' E 026°29'0 0.0
2017-Oct-12 03:29N 60°09' E 026°29'0 0.0
2017-Oct-12 02:59N 60°09' E 026°29'0 0.0
2017-Oct-12 02:29N 60°09' E 026°29'0 0.1
2017-Oct-12 01:59N 60°09' E 026°29'0 0.1
2017-Oct-12 01:29N 60°09' E 026°29'0 0.2
2017-Oct-12 00:59N 60°09' E 026°29'0 0.0
2017-Oct-12 00:29N 60°09' E 026°29'0 0.0
2017-Oct-11 23:59N 60°09' E 026°29'0 0.0
2017-Oct-11 23:29N 60°09' E 026°29'0 0.0
2017-Oct-11 22:59N 60°09' E 026°29'0 0.0
2017-Oct-11 22:29N 60°09' E 026°29'0 0.0
2017-Oct-11 21:59N 60°09' E 026°29'0 0.0
2017-Oct-11 21:29N 60°09' E 026°29'0 0.0
2017-Oct-11 20:53N 60°09' E 026°29'0 0.0
2017-Oct-11 20:29N 60°09' E 026°29'0 0.0
2017-Oct-11 19:57N 60°09' E 026°29'0 0.0
2017-Oct-11 19:29N 60°09' E 026°29'0 0.0
2017-Oct-11 18:59N 60°09' E 026°29'0 0.0
2017-Oct-11 18:29N 60°09' E 026°29'0 0.0
2017-Oct-11 17:59N 60°09' E 026°29'0 0.0
2017-Oct-11 17:29N 60°09' E 026°29'0 0.0
2017-Oct-11 16:59N 60°09' E 026°29'0 0.0
2017-Oct-10 23:56N 60°09' E 026°29'0 0.0
2017-Oct-10 23:29N 60°09' E 026°29'0 0.0
2017-Oct-10 22:56N 60°09' E 026°29'0 0.1
2017-Oct-10 22:29N 60°09' E 026°29'0 0.0
2017-Oct-10 21:56N 60°09' E 026°29'0 0.0
2017-Oct-10 21:26N 60°09' E 026°29'0 0.1
2017-Oct-10 20:59N 60°09' E 026°29'0 0.0
2017-Oct-10 20:29N 60°09' E 026°29'0 0.0
2017-Oct-10 19:59N 60°09' E 026°29'0 0.0
2017-Oct-10 19:26N 60°09' E 026°29'0 0.1
2017-Oct-10 18:59N 60°09' E 026°29'0 0.0
2017-Oct-10 18:29N 60°09' E 026°29'0 0.0
2017-Oct-10 17:59N 60°09' E 026°29'0 0.0
2017-Oct-10 17:29N 60°09' E 026°29'0 0.0
2017-Oct-10 16:59N 60°09' E 026°29'0 0.0
2017-Oct-10 16:23N 60°09' E 026°29'0 0.0
2017-Oct-10 15:56N 60°09' E 026°29'0 0.0
2017-Oct-10 15:29N 60°09' E 026°29'0 0.0
2017-Oct-10 14:59N 60°09' E 026°29'0 0.0
2017-Oct-10 13:53N 60°09' E 026°29'0 0.0
2017-Oct-10 13:29N 60°09' E 026°29'0 0.0
2017-Oct-10 12:59N 60°09' E 026°29'0 0.0
2017-Oct-10 12:29N 60°09' E 026°29'0 0.0
2017-Oct-10 11:59N 60°09' E 026°29'0 0.0
2017-Oct-10 11:29N 60°09' E 026°29'0 0.0
2017-Oct-10 10:59N 60°09' E 026°29'0 0.0
2017-Oct-10 10:29N 60°09' E 026°29'0 0.0
2017-Oct-10 09:59N 60°09' E 026°29'0 0.0
2017-Oct-10 09:29N 60°09' E 026°29'0 0.0
2017-Oct-10 08:59N 60°09' E 026°29'0 0.0
2017-Oct-10 08:29N 60°09' E 026°29'0 0.0
2017-Oct-10 07:59N 60°09' E 026°29'0 0.0
2017-Oct-10 07:29N 60°09' E 026°29'0 0.0
2017-Oct-10 06:59N 60°09' E 026°29'0 0.0
2017-Oct-10 06:29N 60°09' E 026°29'0 0.1
2017-Oct-10 05:59N 60°09' E 026°29'0 0.0
2017-Oct-10 05:29N 60°09' E 026°29'0 0.0
2017-Oct-10 04:59N 60°09' E 026°29'0 0.0
2017-Oct-10 04:29N 60°09' E 026°29'0 0.0
2017-Oct-10 03:59N 60°09' E 026°29'0 0.0
2017-Oct-10 03:29N 60°09' E 026°29'0 0.0
2017-Oct-10 02:59N 60°09' E 026°29'0 0.0
2017-Oct-10 02:29N 60°09' E 026°29'0 0.1
2017-Oct-10 01:59N 60°09' E 026°29'0 0.1
2017-Oct-10 01:29N 60°09' E 026°29'0 0.1
2017-Oct-10 00:59N 60°09' E 026°29'0 0.0
2017-Oct-10 00:29N 60°09' E 026°29'0 0.0
2017-Oct-09 23:59N 60°09' E 026°29'0 0.0
2017-Oct-09 23:29N 60°09' E 026°29'0 0.1
2017-Oct-09 22:59N 60°09' E 026°29'0 0.0
2017-Oct-09 22:29N 60°09' E 026°29'0 0.0
2017-Oct-09 21:59N 60°09' E 026°29'0 0.0
2017-Oct-09 21:29N 60°09' E 026°29'0 0.0
2017-Oct-09 20:59N 60°09' E 026°29'0 0.0
2017-Oct-09 20:29N 60°09' E 026°29'0 0.0
2017-Oct-09 19:59N 60°09' E 026°29'0 0.0
2017-Oct-09 19:29N 60°09' E 026°29'0 0.0
2017-Oct-09 18:59N 60°09' E 026°29'0 0.0
2017-Oct-09 18:29N 60°09' E 026°29'0 0.0
2017-Oct-09 17:59N 60°09' E 026°29'0 0.0
2017-Oct-09 17:29N 60°09' E 026°29'0 0.0
2017-Oct-09 16:59N 60°09' E 026°29'0 0.1
2017-Oct-09 16:29N 60°09' E 026°29'0 0.0
2017-Oct-09 15:59N 60°09' E 026°29'0 0.0
2017-Oct-09 15:29N 60°09' E 026°29'0 0.0
2017-Oct-09 14:59N 60°09' E 026°29'0 0.0
2017-Oct-09 14:29N 60°09' E 026°29'0 0.0
2017-Oct-09 13:59N 60°09' E 026°29'0 0.1
2017-Oct-09 13:29N 60°09' E 026°29'0 0.0
2017-Oct-09 12:59N 60°09' E 026°29'0 0.1
2017-Oct-09 12:29N 60°09' E 026°29'0 0.0
2017-Oct-09 11:59N 60°09' E 026°29'0 0.0
2017-Oct-09 11:29N 60°09' E 026°29'0 0.0
2017-Oct-09 10:59N 60°09' E 026°29'0 0.0
2017-Oct-09 10:29N 60°09' E 026°29'0 0.0
2017-Oct-09 09:59N 60°09' E 026°29'0 0.0
2017-Oct-09 09:29N 60°09' E 026°29'0 0.0
2017-Oct-09 08:59N 60°09' E 026°29'0 0.0
2017-Oct-09 08:29N 60°09' E 026°29'0 0.0
2017-Oct-09 07:59N 60°09' E 026°29'0 0.0
2017-Oct-09 07:29N 60°09' E 026°29'0 0.1
2017-Oct-09 06:59N 60°09' E 026°29'0 0.0
2017-Oct-09 06:29N 60°09' E 026°29'0 0.0
2017-Oct-09 05:59N 60°09' E 026°29'0 0.0
2017-Oct-09 05:29N 60°09' E 026°29'0 0.1
2017-Oct-09 04:59N 60°09' E 026°29'0 0.0
2017-Oct-09 04:29N 60°09' E 026°29'0 0.0
2017-Oct-09 03:59N 60°09' E 026°29'0 0.0
2017-Oct-09 03:29N 60°09' E 026°29'0 0.0
2017-Oct-09 02:59N 60°09' E 026°29'0 0.0
2017-Oct-09 02:29N 60°09' E 026°29'0 0.0
2017-Oct-09 01:59N 60°09' E 026°29'0 0.0
2017-Oct-09 01:29N 60°09' E 026°29'0 0.0
2017-Oct-09 00:59N 60°09' E 026°29'0 0.0
2017-Oct-09 00:29N 60°09' E 026°29'0 0.0
2017-Oct-08 23:59N 60°09' E 026°29'0 0.0
2017-Oct-08 23:29N 60°09' E 026°29'0 0.0
2017-Oct-08 22:59N 60°09' E 026°29'0 0.0
2017-Oct-08 22:29N 60°09' E 026°29'0 0.0
2017-Oct-08 21:59N 60°09' E 026°29'0 0.0
2017-Oct-08 21:29N 60°09' E 026°29'0 0.0
2017-Oct-08 20:59N 60°09' E 026°29'0 0.0
2017-Oct-08 20:29N 60°09' E 026°29'0 0.0
2017-Oct-08 19:59N 60°09' E 026°29'0 0.0
2017-Oct-08 19:29N 60°09' E 026°29'0 0.0
2017-Oct-08 18:59N 60°09' E 026°29'0 0.0
2017-Oct-08 18:29N 60°09' E 026°29'0 0.0
2017-Oct-08 17:59N 60°09' E 026°29'0 0.0
2017-Oct-08 17:29N 60°09' E 026°29'0 0.0
2017-Oct-08 16:59N 60°09' E 026°29'0 0.0
2017-Oct-08 16:29N 60°09' E 026°29'0 0.0
2017-Oct-08 15:59N 60°09' E 026°29'0 0.0
2017-Oct-08 15:29N 60°09' E 026°29'0 0.0
2017-Oct-08 14:59N 60°09' E 026°29'0 0.0
2017-Oct-08 14:29N 60°09' E 026°29'0 0.0
2017-Oct-08 13:59N 60°09' E 026°29'0 0.0
2017-Oct-08 13:29N 60°09' E 026°29'0 0.0
2017-Oct-08 12:59N 60°09' E 026°29'  
Track history (hours):
 
Tides and Currents Weather Stations Pressure Air Temp Water Temp Dewpoint Dewpoint Depression Visibility Wind Speed Wind Dir Waves Ship Positions

Sbi Athena

Last reported at 2017-Oct-18 12:36 UTC. Time now 2017-Oct-18 20:16 UTC.
Position N 56°52' E 007°40'.

Length 200 m; draft 13.8 m.

Type: Cargo ship. MMSI: 538005937.

Date/timePositionNaut miles runAvg speedWind from/ knotsBaromVisibWave heightAir tempDewpointWater temp
2017-Oct-18 12:36N 56°52' E 007°40'1 9.2
2017-Oct-18 12:30N 56°53' E 007°41'5 9.2
2017-Oct-18 11:59N 56°57' E 007°46'5 9.2
2017-Oct-18 11:29N 57°00' E 007°50'5 9.1
2017-Oct-18 10:59N 57°04' E 007°55'4 9.1
2017-Oct-18 10:29N 57°08' E 007°59'83 7.2
2017-Oct-17 23:03N 57°52' E 010°10'2 5.4
2017-Oct-17 22:41N 57°52' E 010°14'1 5.5
2017-Oct-17 22:28N 57°52' E 010°16'2 5.4
2017-Oct-17 22:00N 57°51' E 010°21'3 5.8
2017-Oct-17 21:30N 57°51' E 010°26'3 5.7
2017-Oct-17 21:00N 57°51' E 010°32'3 5.7
2017-Oct-17 20:30N 57°51' E 010°37'3 5.9
2017-Oct-17 20:00N 57°51' E 010°43'2 4.9
2017-Oct-17 19:30N 57°50' E 010°47'4 8.2
2017-Oct-17 19:00N 57°45' E 010°45'3 5.5
2017-Oct-17 18:30N 57°43' E 010°45'2 4.9
2017-Oct-17 18:00N 57°40' E 010°46'4 8.6
2017-Oct-17 17:30N 57°37' E 010°51'5 9.8
2017-Oct-17 17:00N 57°35' E 010°59'5 9.8
2017-Oct-17 16:30N 57°33' E 011°07'5 9.9
2017-Oct-17 16:00N 57°31' E 011°16'5 9.8
2017-Oct-17 15:30N 57°29' E 011°24'5 9.7
2017-Oct-17 15:00N 57°24' E 011°28'510.6
2017-Oct-17 14:30N 57°19' E 011°31'511.0
2017-Oct-17 14:00N 57°14' E 011°35'611.1
2017-Oct-17 13:30N 57°09' E 011°38'611.2
2017-Oct-17 13:00N 57°04' E 011°42'7310.3
2017-Oct-17 05:59N 55°55' E 010°57'611.2
2017-Oct-17 05:28N 55°52' E 010°49'1212.0
2017-Oct-17 04:30N 55°41' E 010°48'611.7
2017-Oct-17 04:00N 55°35' E 010°49'611.8
2017-Oct-17 03:30N 55°30' E 010°54'611.4
2017-Oct-17 03:00N 55°25' E 010°59'611.3
2017-Oct-17 02:30N 55°19' E 011°02'611.6
2017-Oct-17 02:00N 55°14' E 011°06'510.4
2017-Oct-17 01:30N 55°10' E 011°01'510.6
2017-Oct-17 01:00N 55°04' E 010°59'510.5
2017-Oct-17 00:30N 54°59' E 010°58'510.1
2017-Oct-17 00:00N 54°55' E 010°53'510.0
2017-Oct-16 23:30N 54°51' E 010°50'510.0
2017-Oct-16 23:00N 54°46' E 010°48'5 9.8
2017-Oct-16 22:30N 54°41' E 010°48'611.3
2017-Oct-16 22:00N 54°38' E 010°56'611.1
2017-Oct-16 21:30N 54°36' E 011°05'611.3
2017-Oct-16 21:00N 54°35' E 011°15'611.3
2017-Oct-16 20:30N 54°32' E 011°23'611.4
2017-Oct-16 20:00N 54°30' E 011°32'611.5
2017-Oct-16 19:30N 54°27' E 011°41'611.7
2017-Oct-16 19:00N 54°27' E 011°51'611.3
2017-Oct-16 18:30N 54°27' E 012°01'610.9
2017-Oct-16 17:59N 54°27' E 012°11'1010.5
2017-Oct-16 17:05N 54°36' E 012°16'0 6.1
2017-Oct-16 17:00N 54°36' E 012°16'3 5.9
2017-Oct-16 16:30N 54°38' E 012°20'4 7.5
2017-Oct-16 16:00N 54°40' E 012°26'510.8
2017-Oct-16 15:30N 54°43' E 012°34'610.7
2017-Oct-16 14:59N 54°46' E 012°42'510.9
2017-Oct-16 14:30N 54°48' E 012°50'1411.0
2017-Oct-16 13:13N 54°54' E 013°13'311.3
2017-Oct-16 12:57N 54°55' E 013°17'1011.0
2017-Oct-16 12:04N 54°58' E 013°33'210.7
2017-Oct-16 11:56N 54°59' E 013°36'510.6
2017-Oct-16 11:30N 55°00' E 013°43'610.8
2017-Oct-16 10:58N 55°02' E 013°53'511.1
2017-Oct-16 10:30N 55°04' E 014°01'510.7
2017-Oct-16 09:59N 55°08' E 014°08'511.0
2017-Oct-16 09:30N 55°12' E 014°14'611.0
2017-Oct-16 09:00N 55°16' E 014°20'510.9
2017-Oct-16 08:30N 55°20' E 014°26'510.9
2017-Oct-16 08:00N 55°24' E 014°33'510.7
2017-Oct-16 07:30N 55°28' E 014°40'511.1
2017-Oct-16 07:00N 55°30' E 014°48'611.2
2017-Oct-16 06:30N 55°33' E 014°57'611.0
2017-Oct-16 05:58N 55°36' E 015°06'610.8
2017-Oct-16 05:25N 55°38' E 015°16'410.7
2017-Oct-16 05:00N 55°39' E 015°24'610.8
2017-Oct-16 04:30N 55°40' E 015°33'510.9
2017-Oct-16 04:00N 55°42' E 015°43'611.1
2017-Oct-16 03:30N 55°43' E 015°52'511.0
2017-Oct-16 03:00N 55°45' E 016°01'510.9
2017-Oct-16 02:30N 55°46' E 016°11'510.9
2017-Oct-16 02:00N 55°47' E 016°20'510.8
2017-Oct-16 01:30N 55°49' E 016°30'510.6
2017-Oct-16 01:00N 55°50' E 016°39'510.8
2017-Oct-16 00:30N 55°51' E 016°48'1110.9
2017-Oct-15 23:32N 55°54' E 017°06'411.0
2017-Oct-15 23:08N 55°55' E 017°14'211.0
2017-Oct-15 22:59N 55°55' E 017°17'1110.8
2017-Oct-15 21:58N 55°58' E 017°36'710.9
2017-Oct-15 21:20N 56°01' E 017°47'411.0
2017-Oct-15 20:58N 56°03' E 017°53'711.1
2017-Oct-15 20:23N 56°07' E 018°03'610.9
2017-Oct-15 19:49N 56°10' E 018°12'2610.9
2017-Oct-15 17:24N 56°27' E 018°49'411.3
2017-Oct-15 17:00N 56°30' E 018°53'21310.4
2017-Oct-14 20:28N 59°30' E 022°29'910.2
2017-Oct-14 19:33N 59°33' E 022°46'310.7
2017-Oct-14 19:15N 59°34' E 022°52'810.2
2017-Oct-14 18:26N 59°36' E 023°08'4 9.8
2017-Oct-14 18:00N 59°38' E 023°16'5 9.8
2017-Oct-14 17:30N 59°39' E 023°25'510.1
2017-Oct-14 16:59N 59°40' E 023°35'510.0
2017-Oct-14 16:30N 59°42' E 023°44'510.1
2017-Oct-14 16:00N 59°43' E 023°54'5 9.7
2017-Oct-14 15:30N 59°45' E 024°03'510.3
2017-Oct-14 15:00N 59°46' E 024°13'510.8
2017-Oct-14 14:30N 59°47' E 024°23'510.7
2017-Oct-14 14:00N 59°48' E 024°34'510.9
2017-Oct-14 13:30N 59°50' E 024°44'5 9.6
2017-Oct-14 13:00N 59°51' E 024°54'510.8
2017-Oct-14 12:30N 59°52' E 025°04'510.8
2017-Oct-14 12:00N 59°53' E 025°15'29 7.6
2017-Oct-14 08:09N 59°60' E 026°12'211.1
2017-Oct-14 08:00N 60°01' E 026°14'510.9
2017-Oct-14 07:30N 60°04' E 026°23'5 9.5
2017-Oct-14 07:00N 60°08' E 026°30'1 2.2
2017-Oct-14 06:30N 60°09' E 026°29'0 0.2
2017-Oct-14 05:59N 60°08' E 026°29'0 0.0
2017-Oct-14 05:29N 60°08' E 026°29'0 0.0
2017-Oct-14 04:59N 60°08' E 026°29'0 0.0
2017-Oct-14 04:29N 60°08' E 026°29'0 0.0
2017-Oct-14 03:59N 60°08' E 026°29'0 0.0
2017-Oct-14 03:29N 60°08' E 026°29'0 0.0
2017-Oct-14 02:59N 60°08' E 026°29'0 0.0
2017-Oct-14 02:29N 60°08' E 026°29'0 0.0
2017-Oct-14 01:59N 60°08' E 026°29'0 0.0
2017-Oct-14 00:05N 60°08' E 026°29'0 0.1
2017-Oct-13 23:59N 60°08' E 026°29'0 0.0
2017-Oct-13 23:29N 60°08' E 026°29'0 0.0
2017-Oct-13 22:59N 60°08' E 026°29'0 0.1
2017-Oct-13 22:29N 60°08' E 026°29'0 0.0
2017-Oct-13 21:59N 60°08' E 026°29'0 0.0
2017-Oct-13 21:29N 60°08' E 026°29'0 0.0
2017-Oct-13 20:59N 60°08' E 026°29'0 0.0
2017-Oct-13 20:29N 60°08' E 026°29'0 0.0
2017-Oct-13 19:59N 60°08' E 026°29'0 0.0
2017-Oct-13 19:29N 60°08' E 026°29'0 0.0
2017-Oct-13 18:59N 60°08' E 026°29'0 0.0
2017-Oct-13 18:29N 60°08' E 026°29'0 0.0
2017-Oct-13 17:59N 60°08' E 026°29'0 0.0
2017-Oct-13 17:29N 60°08' E 026°29'0 0.0
2017-Oct-13 16:59N 60°08' E 026°29'0 0.0
2017-Oct-13 16:29N 60°08' E 026°29'0 0.1
2017-Oct-13 15:59N 60°08' E 026°29'0 0.1
2017-Oct-13 15:29N 60°08' E 026°29'0 0.2
2017-Oct-13 14:59N 60°08' E 026°29'0 0.3
2017-Oct-13 14:29N 60°09' E 026°29'0 0.0
2017-Oct-13 13:59N 60°09' E 026°29'0 0.0
2017-Oct-13 13:29N 60°09' E 026°29'0 0.0
2017-Oct-13 12:59N 60°09' E 026°29'0 0.0
2017-Oct-13 12:29N 60°09' E 026°29'0 0.0
2017-Oct-13 11:59N 60°09' E 026°29'0 0.0
2017-Oct-13 11:29N 60°09' E 026°29'0 0.0
2017-Oct-13 10:59N 60°09' E 026°29'0 0.0
2017-Oct-13 10:29N 60°09' E 026°29'0 0.0
2017-Oct-13 09:59N 60°09' E 026°29'0 0.0
2017-Oct-13 09:29N 60°09' E 026°29'0 0.0
2017-Oct-13 08:59N 60°09' E 026°29'0 0.0
2017-Oct-13 08:29N 60°09' E 026°29'0 0.0
2017-Oct-13 07:59N 60°09' E 026°29'0 0.0
2017-Oct-13 07:29N 60°09' E 026°29'0 0.0
2017-Oct-13 07:00N 60°09' E 026°29'0 0.0
2017-Oct-13 06:29N 60°09' E 026°29'0 0.0
2017-Oct-13 05:59N 60°09' E 026°29'0 0.0
2017-Oct-13 05:29N 60°09' E 026°29'0 0.0
2017-Oct-13 04:59N 60°09' E 026°29'0 0.0
2017-Oct-13 04:29N 60°09' E 026°29'0 0.0
2017-Oct-13 03:59N 60°09' E 026°29'0 0.0
2017-Oct-13 03:29N 60°09' E 026°29'0 0.0
2017-Oct-13 02:56N 60°09' E 026°29'0 0.1
2017-Oct-13 02:26N 60°09' E 026°29'0 0.0
2017-Oct-13 01:59N 60°09' E 026°29'0 0.0
2017-Oct-13 01:29N 60°09' E 026°29'0 0.0
2017-Oct-13 00:59N 60°09' E 026°29'0 0.1
2017-Oct-13 00:23N 60°09' E 026°29'0 0.0
2017-Oct-12 23:56N 60°09' E 026°29'0 0.0
2017-Oct-12 23:29N 60°09' E 026°29'0 0.0
2017-Oct-12 22:59N 60°09' E 026°29'0 0.0
2017-Oct-12 20:44N 60°09' E 026°29'0 0.0
2017-Oct-12 19:08N 60°09' E 026°29'0 0.1
2017-Oct-12 18:59N 60°09' E 026°29'0 0.0
2017-Oct-12 18:26N 60°09' E 026°29'0 0.0
2017-Oct-12 17:44N 60°09' E 026°29'0 0.0
2017-Oct-12 17:26N 60°09' E 026°29'0 0.0
2017-Oct-12 16:50N 60°09' E 026°29'0 0.0
2017-Oct-12 16:17N 60°09' E 026°29'0 0.0
2017-Oct-12 15:59N 60°09' E 026°29'0 0.0
2017-Oct-12 15:29N 60°09' E 026°29'0 0.0
2017-Oct-12 14:59N 60°09' E 026°29'0 0.0
2017-Oct-12 14:29N 60°09' E 026°29'0 0.0
2017-Oct-12 13:59N 60°09' E 026°29'0 0.0
2017-Oct-12 13:29N 60°09' E 026°29'0 0.1
2017-Oct-12 12:59N 60°09' E 026°29'0 0.0
2017-Oct-12 12:29N 60°09' E 026°29'0 0.1
2017-Oct-12 11:53N 60°09' E 026°29'0 0.0
2017-Oct-12 11:29N 60°09' E 026°29'0 0.2
2017-Oct-12 11:00N 60°09' E 026°29'0 0.1
2017-Oct-12 10:29N 60°09' E 026°29'0 0.0
2017-Oct-12 09:59N 60°09' E 026°29'0 0.0
2017-Oct-12 09:29N 60°09' E 026°29'0 0.0
2017-Oct-12 08:59N 60°09' E 026°29'0 0.1
2017-Oct-12 08:29N 60°09' E 026°29'0 0.2
2017-Oct-12 07:59N 60°09' E 026°29'0 0.1
2017-Oct-12 07:26N 60°09' E 026°29'0 0.1
2017-Oct-12 06:59N 60°09' E 026°29'0 0.0
2017-Oct-12 06:08N 60°09' E 026°29'0 0.0
2017-Oct-12 04:59N 60°09' E 026°29'0 0.0
2017-Oct-12 04:30N 60°09' E 026°29'0 0.0
2017-Oct-12 03:59N 60°09' E 026°29'0 0.0
2017-Oct-12 03:29N 60°09' E 026°29'0 0.0
2017-Oct-12 02:59N 60°09' E 026°29'0 0.0
2017-Oct-12 02:29N 60°09' E 026°29'0 0.1
2017-Oct-12 01:59N 60°09' E 026°29'0 0.1
2017-Oct-12 01:29N 60°09' E 026°29'0 0.2
2017-Oct-12 00:59N 60°09' E 026°29'0 0.0
2017-Oct-12 00:29N 60°09' E 026°29'0 0.0
2017-Oct-11 23:59N 60°09' E 026°29'0 0.0
2017-Oct-11 23:29N 60°09' E 026°29'0 0.0
2017-Oct-11 22:59N 60°09' E 026°29'0 0.0
2017-Oct-11 22:29N 60°09' E 026°29'0 0.0
2017-Oct-11 21:59N 60°09' E 026°29'0 0.0
2017-Oct-11 21:29N 60°09' E 026°29'0 0.0
2017-Oct-11 20:53N 60°09' E 026°29'0 0.0
2017-Oct-11 20:29N 60°09' E 026°29'0 0.0
2017-Oct-11 19:57N 60°09' E 026°29'0 0.0
2017-Oct-11 19:29N 60°09' E 026°29'0 0.0
2017-Oct-11 18:59N 60°09' E 026°29'0 0.0
2017-Oct-11 18:29N 60°09' E 026°29'0 0.0
2017-Oct-11 17:59N 60°09' E 026°29'0 0.0
2017-Oct-11 17:29N 60°09' E 026°29'0 0.0
2017-Oct-11 16:59N 60°09' E 026°29'0 0.0
2017-Oct-10 23:56N 60°09' E 026°29'0 0.0
2017-Oct-10 23:29N 60°09' E 026°29'0 0.0
2017-Oct-10 22:56N 60°09' E 026°29'0 0.1
2017-Oct-10 22:29N 60°09' E 026°29'0 0.0
2017-Oct-10 21:56N 60°09' E 026°29'0 0.0
2017-Oct-10 21:26N 60°09' E 026°29'0 0.1
2017-Oct-10 20:59N 60°09' E 026°29'0 0.0
2017-Oct-10 20:29N 60°09' E 026°29'0 0.0
2017-Oct-10 19:59N 60°09' E 026°29'0 0.0
2017-Oct-10 19:26N 60°09' E 026°29'0 0.1
2017-Oct-10 18:59N 60°09' E 026°29'0 0.0
2017-Oct-10 18:29N 60°09' E 026°29'0 0.0
2017-Oct-10 17:59N 60°09' E 026°29'0 0.0
2017-Oct-10 17:29N 60°09' E 026°29'0 0.0
2017-Oct-10 16:59N 60°09' E 026°29'0 0.0
2017-Oct-10 16:23N 60°09' E 026°29'0 0.0
2017-Oct-10 15:56N 60°09' E 026°29'0 0.0
2017-Oct-10 15:29N 60°09' E 026°29'0 0.0
2017-Oct-10 14:59N 60°09' E 026°29'0 0.0
2017-Oct-10 13:53N 60°09' E 026°29'0 0.0
2017-Oct-10 13:29N 60°09' E 026°29'0 0.0
2017-Oct-10 12:59N 60°09' E 026°29'0 0.0
2017-Oct-10 12:29N 60°09' E 026°29'0 0.0
2017-Oct-10 11:59N 60°09' E 026°29'0 0.0
2017-Oct-10 11:29N 60°09' E 026°29'0 0.0
2017-Oct-10 10:59N 60°09' E 026°29'0 0.0
2017-Oct-10 10:29N 60°09' E 026°29'0 0.0
2017-Oct-10 09:59N 60°09' E 026°29'0 0.0
2017-Oct-10 09:29N 60°09' E 026°29'0 0.0
2017-Oct-10 08:59N 60°09' E 026°29'0 0.0
2017-Oct-10 08:29N 60°09' E 026°29'0 0.0
2017-Oct-10 07:59N 60°09' E 026°29'0 0.0
2017-Oct-10 07:29N 60°09' E 026°29'0 0.0
2017-Oct-10 06:59N 60°09' E 026°29'0 0.0
2017-Oct-10 06:29N 60°09' E 026°29'0 0.1
2017-Oct-10 05:59N 60°09' E 026°29'0 0.0
2017-Oct-10 05:29N 60°09' E 026°29'0 0.0
2017-Oct-10 04:59N 60°09' E 026°29'0 0.0
2017-Oct-10 04:29N 60°09' E 026°29'0 0.0
2017-Oct-10 03:59N 60°09' E 026°29'0 0.0
2017-Oct-10 03:29N 60°09' E 026°29'0 0.0
2017-Oct-10 02:59N 60°09' E 026°29'0 0.0
2017-Oct-10 02:29N 60°09' E 026°29'0 0.1
2017-Oct-10 01:59N 60°09' E 026°29'0 0.1
2017-Oct-10 01:29N 60°09' E 026°29'0 0.1
2017-Oct-10 00:59N 60°09' E 026°29'0 0.0
2017-Oct-10 00:29N 60°09' E 026°29'0 0.0
2017-Oct-09 23:59N 60°09' E 026°29'0 0.0
2017-Oct-09 23:29N 60°09' E 026°29'0 0.1
2017-Oct-09 22:59N 60°09' E 026°29'0 0.0
2017-Oct-09 22:29N 60°09' E 026°29'0 0.0
2017-Oct-09 21:59N 60°09' E 026°29'0 0.0
2017-Oct-09 21:29N 60°09' E 026°29'0 0.0
2017-Oct-09 20:59N 60°09' E 026°29'0 0.0
2017-Oct-09 20:29N 60°09' E 026°29'0 0.0
2017-Oct-09 19:59N 60°09' E 026°29'0 0.0
2017-Oct-09 19:29N 60°09' E 026°29'0 0.0
2017-Oct-09 18:59N 60°09' E 026°29'0 0.0
2017-Oct-09 18:29N 60°09' E 026°29'0 0.0
2017-Oct-09 17:59N 60°09' E 026°29'0 0.0
2017-Oct-09 17:29N 60°09' E 026°29'0 0.0
2017-Oct-09 16:59N 60°09' E 026°29'0 0.1
2017-Oct-09 16:29N 60°09' E 026°29'0 0.0
2017-Oct-09 15:59N 60°09' E 026°29'0 0.0
2017-Oct-09 15:29N 60°09' E 026°29'0 0.0
2017-Oct-09 14:59N 60°09' E 026°29'0 0.0
2017-Oct-09 14:29N 60°09' E 026°29'0 0.0
2017-Oct-09 13:59N 60°09' E 026°29'0 0.1
2017-Oct-09 13:29N 60°09' E 026°29'0 0.0
2017-Oct-09 12:59N 60°09' E 026°29'0 0.1
2017-Oct-09 12:29N 60°09' E 026°29'0 0.0
2017-Oct-09 11:59N 60°09' E 026°29'0 0.0
2017-Oct-09 11:29N 60°09' E 026°29'0 0.0
2017-Oct-09 10:59N 60°09' E 026°29'0 0.0
2017-Oct-09 10:29N 60°09' E 026°29'0 0.0
2017-Oct-09 09:59N 60°09' E 026°29'0 0.0
2017-Oct-09 09:29N 60°09' E 026°29'0 0.0
2017-Oct-09 08:59N 60°09' E 026°29'0 0.0
2017-Oct-09 08:29N 60°09' E 026°29'0 0.0
2017-Oct-09 07:59N 60°09' E 026°29'0 0.0
2017-Oct-09 07:29N 60°09' E 026°29'0 0.1
2017-Oct-09 06:59N 60°09' E 026°29'0 0.0
2017-Oct-09 06:29N 60°09' E 026°29'0 0.0
2017-Oct-09 05:59N 60°09' E 026°29'0 0.0
2017-Oct-09 05:29N 60°09' E 026°29'0 0.1
2017-Oct-09 04:59N 60°09' E 026°29'0 0.0
2017-Oct-09 04:29N 60°09' E 026°29'0 0.0
2017-Oct-09 03:59N 60°09' E 026°29'0 0.0
2017-Oct-09 03:29N 60°09' E 026°29'0 0.0
2017-Oct-09 02:59N 60°09' E 026°29'0 0.0
2017-Oct-09 02:29N 60°09' E 026°29'0 0.0
2017-Oct-09 01:59N 60°09' E 026°29'0 0.0
2017-Oct-09 01:29N 60°09' E 026°29'0 0.0
2017-Oct-09 00:59N 60°09' E 026°29'0 0.0
2017-Oct-09 00:29N 60°09' E 026°29'0 0.0
2017-Oct-08 23:59N 60°09' E 026°29'0 0.0
2017-Oct-08 23:29N 60°09' E 026°29'0 0.0
2017-Oct-08 22:59N 60°09' E 026°29'0 0.0
2017-Oct-08 22:29N 60°09' E 026°29'0 0.0
2017-Oct-08 21:59N 60°09' E 026°29'0 0.0
2017-Oct-08 21:29N 60°09' E 026°29'0 0.0
2017-Oct-08 20:59N 60°09' E 026°29'0 0.0
2017-Oct-08 20:29N 60°09' E 026°29'0 0.0
2017-Oct-08 19:59N 60°09' E 026°29'0 0.0
2017-Oct-08 19:29N 60°09' E 026°29'0 0.0
2017-Oct-08 18:59N 60°09' E 026°29'0 0.0
2017-Oct-08 18:29N 60°09' E 026°29'0 0.0
2017-Oct-08 17:59N 60°09' E 026°29'0 0.0
2017-Oct-08 17:29N 60°09' E 026°29'0 0.0
2017-Oct-08 16:59N 60°09' E 026°29'0 0.0
2017-Oct-08 16:29N 60°09' E 026°29'0 0.0
2017-Oct-08 15:59N 60°09' E 026°29'0 0.0
2017-Oct-08 15:29N 60°09' E 026°29'0 0.0
2017-Oct-08 14:59N 60°09' E 026°29'0 0.0
2017-Oct-08 14:29N 60°09' E 026°29'0 0.0
2017-Oct-08 13:59N 60°09' E 026°29'0 0.0
2017-Oct-08 13:29N 60°09' E 026°29'0 0.0
2017-Oct-08 12:59N 60°09' E 026°29'  

Dump ship's entire track history